createdAt,value
2018-11-04T00:01:04.965Z,3.68
2018-11-04T00:03:38.834Z,3.71
2018-11-04T00:06:12.664Z,3.72
2018-11-04T00:08:46.582Z,3.71
2018-11-04T00:11:20.465Z,3.71
2018-11-04T00:13:54.356Z,3.68
2018-11-04T00:16:28.163Z,3.68
2018-11-04T00:19:02.076Z,3.67
2018-11-04T00:21:35.926Z,3.62
2018-11-04T00:24:09.885Z,3.60
2018-11-04T00:26:43.650Z,3.63
2018-11-04T00:29:17.598Z,3.58
2018-11-04T00:31:51.445Z,3.55
2018-11-04T00:34:25.330Z,3.51
2018-11-04T00:36:59.201Z,3.50
2018-11-04T00:39:33.030Z,3.44
2018-11-04T00:42:06.859Z,3.37
2018-11-04T00:44:40.736Z,3.37
2018-11-04T00:47:14.570Z,3.36
2018-11-04T00:49:48.423Z,3.38
2018-11-04T00:52:22.240Z,3.40
2018-11-04T00:54:56.249Z,3.43
2018-11-04T00:57:30.075Z,3.38
2018-11-04T01:00:04.539Z,3.39
2018-11-04T01:02:38.397Z,3.41
2018-11-04T01:05:12.226Z,3.38
2018-11-04T01:07:46.096Z,3.40
2018-11-04T01:10:19.981Z,3.38
2018-11-04T01:12:53.766Z,3.38
2018-11-04T01:15:27.611Z,3.32
2018-11-04T01:18:01.464Z,3.32
2018-11-04T01:20:35.354Z,3.27
2018-11-04T01:23:09.292Z,3.15
2018-11-04T01:25:43.157Z,3.17
2018-11-04T01:28:17.005Z,3.27
2018-11-04T01:30:50.869Z,3.32
2018-11-04T01:33:24.721Z,3.29
2018-11-04T01:35:58.597Z,3.42
2018-11-04T01:38:32.435Z,3.43
2018-11-04T01:41:06.358Z,3.45
2018-11-04T01:43:40.178Z,3.60
2018-11-04T01:46:14.027Z,3.73
2018-11-04T01:48:47.908Z,3.83
2018-11-04T01:51:21.749Z,3.89
2018-11-04T01:53:55.624Z,3.97
2018-11-04T01:56:29.476Z,4.04
2018-11-04T01:59:03.596Z,4.07
2018-11-04T02:01:37.468Z,3.97
2018-11-04T02:04:11.314Z,4.01
2018-11-04T02:06:45.150Z,4.11
2018-11-04T02:09:18.954Z,4.20
2018-11-04T02:11:52.886Z,4.22
2018-11-04T02:14:26.732Z,4.30
2018-11-04T02:17:00.585Z,4.36
2018-11-04T02:19:34.406Z,4.39
2018-11-04T02:22:08.229Z,4.39
2018-11-04T02:24:42.047Z,4.39
2018-11-04T02:27:15.967Z,4.37
2018-11-04T02:29:49.769Z,4.39
2018-11-04T02:32:23.603Z,4.43
2018-11-04T02:34:57.396Z,4.46
2018-11-04T02:37:31.309Z,4.36
2018-11-04T02:40:05.410Z,4.24
2018-11-04T02:42:39.264Z,4.21
2018-11-04T02:45:13.060Z,4.32
2018-11-04T02:47:46.942Z,4.37
2018-11-04T02:50:20.885Z,4.35
2018-11-04T02:52:56.039Z,4.44
2018-11-04T02:55:29.843Z,4.50
2018-11-04T02:58:03.749Z,4.53
2018-11-04T03:00:37.564Z,4.48
2018-11-04T03:03:11.441Z,4.47
2018-11-04T03:05:45.260Z,4.51
2018-11-04T03:08:19.191Z,4.56
2018-11-04T03:10:52.981Z,4.58
2018-11-04T03:13:26.909Z,4.57
2018-11-04T03:16:00.744Z,4.56
2018-11-04T03:18:34.577Z,4.44
2018-11-04T03:21:08.701Z,4.42
2018-11-04T03:23:42.575Z,4.35
2018-11-04T03:26:16.397Z,4.40
2018-11-04T03:28:50.410Z,4.39
2018-11-04T03:31:24.248Z,4.36
2018-11-04T03:33:58.144Z,4.39
2018-11-04T03:36:32.009Z,4.39
2018-11-04T03:39:08.028Z,4.36
2018-11-04T03:41:42.628Z,4.38
2018-11-04T03:44:16.421Z,4.41
2018-11-04T03:46:50.243Z,4.39
2018-11-04T03:49:24.084Z,4.49
2018-11-04T03:51:57.917Z,4.44
2018-11-04T03:54:31.786Z,4.46
2018-11-04T03:57:06.141Z,4.41
2018-11-04T03:59:40.146Z,4.50
2018-11-04T04:02:13.971Z,4.54
2018-11-04T04:04:47.930Z,4.50
2018-11-04T04:07:21.789Z,4.51
2018-11-04T04:09:55.649Z,4.45
2018-11-04T04:12:29.479Z,4.44
2018-11-04T04:15:03.354Z,4.43
2018-11-04T04:17:37.228Z,4.41
2018-11-04T04:20:11.146Z,4.37
2018-11-04T04:22:45.008Z,4.30
2018-11-04T04:25:18.925Z,4.29
2018-11-04T04:27:52.762Z,4.30
2018-11-04T04:30:26.606Z,4.34
2018-11-04T04:33:00.401Z,4.34
2018-11-04T04:35:34.477Z,4.32
2018-11-04T04:38:08.275Z,4.38
2018-11-04T04:40:42.137Z,4.31
2018-11-04T04:43:15.965Z,4.40
2018-11-04T04:45:49.813Z,4.44
2018-11-04T04:48:23.652Z,4.52
2018-11-04T04:50:57.523Z,4.57
2018-11-04T04:53:31.375Z,4.60
2018-11-04T04:56:05.232Z,4.54
2018-11-04T04:58:39.041Z,4.54
2018-11-04T05:01:12.919Z,4.57
2018-11-04T05:03:46.748Z,4.62
2018-11-04T05:06:20.585Z,4.69
2018-11-04T05:08:54.694Z,4.67
2018-11-04T05:11:28.552Z,4.74
2018-11-04T05:14:02.427Z,4.81
2018-11-04T05:16:36.278Z,4.76
2018-11-04T05:19:10.092Z,4.87
2018-11-04T05:21:44.144Z,4.96
2018-11-04T05:24:17.946Z,5.00
2018-11-04T05:26:51.766Z,5.03
2018-11-04T05:29:25.578Z,4.99
2018-11-04T05:31:59.409Z,5.05
2018-11-04T05:34:33.286Z,5.02
2018-11-04T05:37:07.136Z,4.99
2018-11-04T05:39:40.949Z,5.08
2018-11-04T05:42:14.813Z,5.16
2018-11-04T05:44:48.608Z,5.17
2018-11-04T05:47:22.462Z,5.18
2018-11-04T05:49:56.271Z,5.25
2018-11-04T05:52:30.243Z,5.32
2018-11-04T05:55:04.492Z,5.38
2018-11-04T05:57:38.477Z,5.44
2018-11-04T06:00:12.464Z,5.47
2018-11-04T06:02:46.309Z,5.52
2018-11-04T06:05:20.189Z,5.56
2018-11-04T06:07:54.137Z,5.61
2018-11-04T06:10:27.950Z,5.63
2018-11-04T06:13:01.839Z,5.53
2018-11-04T06:15:35.675Z,5.53
2018-11-04T06:18:09.785Z,5.58
2018-11-04T06:20:43.698Z,5.61
2018-11-04T06:23:17.663Z,5.68
2018-11-04T06:25:51.493Z,5.76
2018-11-04T06:28:25.370Z,5.82
2018-11-04T06:30:59.225Z,5.91
2018-11-04T06:33:33.192Z,6.01
2018-11-04T06:36:07.038Z,6.07
2018-11-04T06:38:40.867Z,6.22
2018-11-04T06:41:14.740Z,6.29
2018-11-04T06:43:48.685Z,6.33
2018-11-04T06:46:22.607Z,6.35
2018-11-04T06:48:56.452Z,6.31
2018-11-04T06:51:30.326Z,6.29
2018-11-04T06:54:04.203Z,6.30
2018-11-04T06:56:38.038Z,6.28
2018-11-04T06:59:11.917Z,6.37
2018-11-04T07:01:45.784Z,6.38
2018-11-04T07:04:22.136Z,6.53
2018-11-04T07:06:56.013Z,6.62
2018-11-04T07:09:29.978Z,6.71
2018-11-04T07:12:03.765Z,6.80
2018-11-04T07:14:37.645Z,6.87
2018-11-04T07:17:11.489Z,6.89
2018-11-04T07:19:45.458Z,6.98
2018-11-04T07:22:19.296Z,7.01
2018-11-04T07:24:53.174Z,7.10
2018-11-04T07:27:27.007Z,7.13
2018-11-04T07:30:00.889Z,7.16
2018-11-04T07:32:34.793Z,7.21
2018-11-04T07:35:09.282Z,7.24
2018-11-04T07:37:43.100Z,7.33
2018-11-04T07:40:16.969Z,7.34
2018-11-04T07:42:50.782Z,7.41
2018-11-04T07:45:24.629Z,7.51
2018-11-04T07:47:58.433Z,7.56
2018-11-04T07:50:32.410Z,7.62
2018-11-04T07:53:06.523Z,7.68
2018-11-04T07:55:40.489Z,7.85
2018-11-04T07:58:14.322Z,7.99
2018-11-04T08:00:48.197Z,8.01
2018-11-04T08:03:22.059Z,8.17
2018-11-04T08:05:55.947Z,8.25
2018-11-04T08:08:29.783Z,8.37
2018-11-04T08:11:03.644Z,8.36
2018-11-04T08:13:37.554Z,8.43
2018-11-04T08:16:11.352Z,8.57
2018-11-04T08:18:45.225Z,8.79
2018-11-04T08:21:19.220Z,8.91
2018-11-04T08:23:53.972Z,9.01
2018-11-04T08:26:27.913Z,9.13
2018-11-04T08:29:01.745Z,9.26
2018-11-04T08:31:35.600Z,9.32
2018-11-04T08:34:09.432Z,9.39
2018-11-04T08:36:43.294Z,9.43
2018-11-04T08:39:17.095Z,9.46
2018-11-04T08:41:51.068Z,9.56
2018-11-04T08:44:24.926Z,9.58
2018-11-04T08:46:58.818Z,9.67
2018-11-04T08:49:32.634Z,9.88
2018-11-04T08:52:06.525Z,10.11
2018-11-04T08:54:40.367Z,10.24
2018-11-04T08:57:14.550Z,10.30
2018-11-04T08:59:48.397Z,10.48
2018-11-04T09:02:23.450Z,10.54
2018-11-04T09:04:57.371Z,10.62
2018-11-04T09:07:31.249Z,10.68
2018-11-04T09:10:07.118Z,10.78
2018-11-04T09:12:41.149Z,10.81
2018-11-04T09:15:15.029Z,10.89
2018-11-04T09:17:48.886Z,10.96
2018-11-04T09:20:22.705Z,10.70
2018-11-04T09:22:56.602Z,10.88
2018-11-04T09:25:30.476Z,11.08
2018-11-04T09:28:04.501Z,11.19
2018-11-04T09:30:38.299Z,11.14
2018-11-04T09:33:12.137Z,11.31
2018-11-04T09:35:46.144Z,11.42
2018-11-04T09:38:19.904Z,11.53
2018-11-04T09:40:53.746Z,11.67
2018-11-04T09:43:27.679Z,11.78
2018-11-04T09:46:01.480Z,11.88
2018-11-04T09:48:35.361Z,11.84
2018-11-04T09:51:09.240Z,11.90
2018-11-04T09:53:43.099Z,11.90
2018-11-04T09:56:16.998Z,12.08
2018-11-04T09:58:50.899Z,12.14
2018-11-04T10:01:24.717Z,12.28
2018-11-04T10:03:58.577Z,12.23
2018-11-04T10:06:32.435Z,12.27
2018-11-04T10:09:08.441Z,12.29
2018-11-04T10:11:42.297Z,12.32
2018-11-04T10:14:16.240Z,12.32
2018-11-04T10:16:50.061Z,12.16
2018-11-04T10:19:24.335Z,12.11
2018-11-04T10:21:58.204Z,12.13
2018-11-04T10:24:32.104Z,12.22
2018-11-04T10:27:05.968Z,12.31
2018-11-04T10:29:39.802Z,12.22
2018-11-04T10:32:13.616Z,12.49
2018-11-04T10:34:47.473Z,12.61
2018-11-04T10:37:21.383Z,12.37
2018-11-04T10:39:55.336Z,12.46
2018-11-04T10:42:29.274Z,12.37
2018-11-04T10:45:03.222Z,12.64
2018-11-04T10:47:37.107Z,12.60
2018-11-04T10:50:12.314Z,12.71
2018-11-04T10:55:25.505Z,12.78
2018-11-04T10:57:59.329Z,12.68
2018-11-04T11:00:38.247Z,12.59
2018-11-04T11:03:12.067Z,12.71
2018-11-04T11:05:45.925Z,12.86
2018-11-04T11:08:19.782Z,12.94
2018-11-04T11:10:53.660Z,13.10
2018-11-04T11:13:27.485Z,12.78
2018-11-04T11:16:01.494Z,13.07
2018-11-04T11:18:35.341Z,13.21
2018-11-04T11:21:09.233Z,13.27
2018-11-04T11:23:43.059Z,13.25
2018-11-04T11:26:17.656Z,13.32
2018-11-04T11:28:51.485Z,13.44
2018-11-04T11:31:25.354Z,13.47
2018-11-04T11:33:59.198Z,13.55
2018-11-04T11:36:33.196Z,13.27
2018-11-04T11:39:09.523Z,13.08
2018-11-04T11:41:44.075Z,13.24
2018-11-04T11:44:17.931Z,13.32
2018-11-04T11:46:51.812Z,13.35
2018-11-04T11:49:25.640Z,13.46
2018-11-04T11:52:00.753Z,13.60
2018-11-04T11:54:35.761Z,13.75
2018-11-04T11:57:12.957Z,13.77
2018-11-04T11:59:48.076Z,13.65
2018-11-04T12:02:23.117Z,13.58
2018-11-04T12:04:58.808Z,13.63
2018-11-04T12:07:32.748Z,13.40
2018-11-04T12:10:08.502Z,13.54
2018-11-04T12:12:42.618Z,13.41
2018-11-04T12:15:16.603Z,13.39
2018-11-04T12:17:50.483Z,13.52
2018-11-04T12:20:24.323Z,13.66
2018-11-04T12:22:58.207Z,13.68
2018-11-04T12:25:32.017Z,13.84
2018-11-04T12:28:05.932Z,13.88
2018-11-04T12:30:39.739Z,13.86
2018-11-04T12:33:13.570Z,13.86
2018-11-04T12:35:47.386Z,13.99
2018-11-04T12:38:21.404Z,13.88
2018-11-04T12:40:55.253Z,13.95
2018-11-04T12:43:29.289Z,14.03
2018-11-04T12:46:03.147Z,14.07
2018-11-04T12:48:37.006Z,13.99
2018-11-04T12:51:10.862Z,14.01
2018-11-04T12:53:44.719Z,14.02
2018-11-04T12:56:18.540Z,13.81
2018-11-04T12:58:52.474Z,13.81
2018-11-04T13:01:26.327Z,13.76
2018-11-04T13:04:00.256Z,13.84
2018-11-04T13:06:34.057Z,13.81
2018-11-04T13:09:09.174Z,13.77
2018-11-04T13:11:43.010Z,13.92
2018-11-04T13:14:16.872Z,13.79
2018-11-04T13:16:50.846Z,13.82
2018-11-04T13:19:24.790Z,13.77
2018-11-04T13:21:58.602Z,13.42
2018-11-04T13:24:32.743Z,13.52
2018-11-04T13:27:06.692Z,13.51
2018-11-04T13:29:40.502Z,13.52
2018-11-04T13:32:14.304Z,13.63
2018-11-04T13:34:48.250Z,13.71
2018-11-04T13:37:22.106Z,13.66
2018-11-04T13:39:56.159Z,13.51
2018-11-04T13:42:30.009Z,13.51
2018-11-04T13:45:03.895Z,13.67
2018-11-04T13:47:37.974Z,13.69
2018-11-04T13:50:13.593Z,13.61
2018-11-04T13:52:47.444Z,13.68
2018-11-04T13:55:21.300Z,13.66
2018-11-04T13:57:55.148Z,13.61
2018-11-04T14:00:29.032Z,13.46
2018-11-04T14:03:02.872Z,13.50
2018-11-04T14:05:36.750Z,13.36
2018-11-04T14:08:10.570Z,13.23
2018-11-04T14:10:44.544Z,13.34
2018-11-04T14:13:18.455Z,13.18
2018-11-04T14:15:52.271Z,13.32
2018-11-04T14:18:26.045Z,13.25
2018-11-04T14:20:59.922Z,13.35
2018-11-04T14:23:33.826Z,13.41
2018-11-04T14:26:08.095Z,13.49
2018-11-04T14:28:41.977Z,13.49
2018-11-04T14:31:15.964Z,13.51
2018-11-04T14:33:49.860Z,13.42
2018-11-04T14:36:23.749Z,13.44
2018-11-04T14:38:57.560Z,13.21
2018-11-04T14:41:31.438Z,13.30
2018-11-04T14:44:05.566Z,13.30
2018-11-04T14:46:39.423Z,13.31
2018-11-04T14:49:13.248Z,13.09
2018-11-04T14:51:47.112Z,13.19
2018-11-04T14:54:21.390Z,13.19
2018-11-04T14:56:55.253Z,13.25
2018-11-04T14:59:29.238Z,12.99
2018-11-04T15:02:03.176Z,12.90
2018-11-04T15:04:36.980Z,13.00
2018-11-04T15:07:10.914Z,13.04
2018-11-04T15:09:44.715Z,13.04
2018-11-04T15:12:18.616Z,13.07
2018-11-04T15:14:52.460Z,13.10
2018-11-04T15:17:26.398Z,13.09
2018-11-04T15:20:00.228Z,13.01
2018-11-04T15:22:34.276Z,12.97
2018-11-04T15:25:08.136Z,12.97
2018-11-04T15:27:41.968Z,12.93
2018-11-04T15:30:15.764Z,12.89
2018-11-04T15:32:49.660Z,12.74
2018-11-04T15:35:23.484Z,12.79
2018-11-04T15:37:57.373Z,12.80
2018-11-04T15:40:31.318Z,12.73
2018-11-04T15:43:05.290Z,12.78
2018-11-04T15:45:39.161Z,12.73
2018-11-04T15:48:13.039Z,12.60
2018-11-04T15:50:46.844Z,12.67
2018-11-04T15:53:20.807Z,12.77
2018-11-04T15:55:54.627Z,12.74
2018-11-04T15:58:28.464Z,12.67
2018-11-04T16:01:02.310Z,12.74
2018-11-04T16:03:36.148Z,12.59
2018-11-04T16:06:10.017Z,12.57
2018-11-04T16:08:43.843Z,12.66
2018-11-04T16:11:17.729Z,12.69
2018-11-04T16:13:51.641Z,12.58
2018-11-04T16:16:25.570Z,12.66
2018-11-04T16:18:59.479Z,12.62
2018-11-04T16:21:33.326Z,12.67
2018-11-04T16:24:07.274Z,12.70
2018-11-04T16:26:41.111Z,12.61
2018-11-04T16:29:14.965Z,12.58
2018-11-04T16:31:49.038Z,12.69
2018-11-04T16:34:23.306Z,12.66
2018-11-04T16:36:57.259Z,12.73
2018-11-04T16:39:31.289Z,12.77
2018-11-04T16:42:05.528Z,12.59
2018-11-04T16:44:39.770Z,12.66
2018-11-04T16:47:13.798Z,12.68
2018-11-04T16:49:48.080Z,12.72
2018-11-04T16:52:22.322Z,12.76
2018-11-04T16:54:56.706Z,12.77
2018-11-04T16:57:30.688Z,12.78
2018-11-04T17:00:04.816Z,12.64
2018-11-04T17:02:39.279Z,12.61
2018-11-04T17:05:13.830Z,12.66
2018-11-04T17:07:47.998Z,12.58
2018-11-04T17:10:22.293Z,12.61
2018-11-04T17:12:56.376Z,12.70
2018-11-04T17:15:30.626Z,12.72
2018-11-04T17:18:04.898Z,12.63
2018-11-04T17:20:39.028Z,12.64
2018-11-04T17:23:13.032Z,12.57
2018-11-04T17:25:47.092Z,12.63
2018-11-04T17:28:21.091Z,12.65
2018-11-04T17:30:55.141Z,12.64
2018-11-04T17:33:29.384Z,12.71
2018-11-04T17:36:03.568Z,12.76
2018-11-04T17:38:37.670Z,12.78
2018-11-04T17:41:11.769Z,12.61
2018-11-04T17:43:45.986Z,12.72
2018-11-04T17:46:20.297Z,12.74
2018-11-04T17:48:54.497Z,12.75
2018-11-04T17:51:28.571Z,12.66
2018-11-04T17:54:02.631Z,12.77
2018-11-04T17:56:36.701Z,12.83
2018-11-04T17:59:10.903Z,12.79
2018-11-04T18:01:45.121Z,12.81
2018-11-04T18:04:19.127Z,12.82
2018-11-04T18:06:53.244Z,12.84
2018-11-04T18:09:27.265Z,12.89
2018-11-04T18:12:01.312Z,12.90
2018-11-04T18:14:35.317Z,12.87
2018-11-04T18:17:09.453Z,12.82
2018-11-04T18:19:43.467Z,12.62
2018-11-04T18:22:17.517Z,12.78
2018-11-04T18:24:51.565Z,12.84
2018-11-04T18:27:25.914Z,12.90
2018-11-04T18:30:00.127Z,12.97
2018-11-04T18:32:34.165Z,12.99
2018-11-04T18:35:08.317Z,12.82
2018-11-04T18:37:42.487Z,12.84
2018-11-04T18:40:18.138Z,12.76
2018-11-04T18:42:52.403Z,12.78
2018-11-04T18:45:26.527Z,12.85
2018-11-04T18:48:00.599Z,12.88
2018-11-04T18:50:34.903Z,12.76
2018-11-04T18:53:09.255Z,12.81
2018-11-04T18:55:43.253Z,12.84
2018-11-04T18:58:17.302Z,12.89
2018-11-04T19:00:51.370Z,12.89
2018-11-04T19:03:25.393Z,12.90
2018-11-04T19:05:59.412Z,12.96
2018-11-04T19:08:33.592Z,13.01
2018-11-04T19:11:07.879Z,12.84
2018-11-04T19:13:42.135Z,12.85
2018-11-04T19:16:16.148Z,12.86
2018-11-04T19:18:50.546Z,12.90
2018-11-04T19:21:24.522Z,12.93
2018-11-04T19:23:58.564Z,13.00
2018-11-04T19:26:32.586Z,12.87
2018-11-04T19:29:07.057Z,12.95
2018-11-04T19:31:41.282Z,12.97
2018-11-04T19:34:15.553Z,12.89
2018-11-04T19:36:49.737Z,12.96
2018-11-04T19:39:23.993Z,12.95
2018-11-04T19:41:58.194Z,13.01
2018-11-04T19:44:32.383Z,12.96
2018-11-04T19:47:07.308Z,13.02
2018-11-04T19:49:41.680Z,13.08
2018-11-04T19:52:15.970Z,13.00
2018-11-04T19:54:50.237Z,13.07
2018-11-04T19:57:28.859Z,13.09
2018-11-04T20:00:03.652Z,13.07
2018-11-04T20:02:38.997Z,13.02
2018-11-04T20:05:14.737Z,13.09
2018-11-04T20:07:49.194Z,13.09
2018-11-04T20:10:29.950Z,13.16
2018-11-04T20:13:09.177Z,13.21
2018-11-04T20:15:43.415Z,13.20
2018-11-04T20:18:22.566Z,13.19
2018-11-04T20:20:56.820Z,13.16
2018-11-04T20:23:30.960Z,13.13
2018-11-04T20:26:07.132Z,13.20
2018-11-04T20:28:41.207Z,13.22
2018-11-04T20:31:21.724Z,13.21
2018-11-04T20:33:54.857Z,13.24
2018-11-04T20:36:29.317Z,13.24
2018-11-04T20:39:08.451Z,13.30
2018-11-04T20:41:43.329Z,13.31
2018-11-04T20:44:17.532Z,13.31
2018-11-04T20:46:51.636Z,13.26
2018-11-04T20:49:31.482Z,13.23
2018-11-04T20:52:05.850Z,13.28
2018-11-04T20:54:39.924Z,13.32
2018-11-04T20:57:19.075Z,13.33
2018-11-04T20:59:53.123Z,13.32
2018-11-04T21:02:27.642Z,13.36
2018-11-04T21:05:01.710Z,13.28
2018-11-04T21:07:36.080Z,13.32
2018-11-04T21:10:10.943Z,13.36
2018-11-04T21:12:45.124Z,13.36
2018-11-04T21:15:19.242Z,13.26
2018-11-04T21:17:53.410Z,13.28
2018-11-04T21:20:27.563Z,13.31
2018-11-04T21:23:01.773Z,13.26
2018-11-04T21:25:36.187Z,13.28
2018-11-04T21:28:10.240Z,13.17
2018-11-04T21:30:44.442Z,13.26
2018-11-04T21:33:18.692Z,13.30
2018-11-04T21:35:52.962Z,13.34
2018-11-04T21:38:27.238Z,13.34
2018-11-04T21:41:01.788Z,13.36
2018-11-04T21:43:36.159Z,13.40
2018-11-04T21:46:10.876Z,13.38
2018-11-04T21:48:45.829Z,13.32
2018-11-04T21:51:20.033Z,13.34
2018-11-04T21:53:54.415Z,13.31
2018-11-04T21:56:28.603Z,13.32
2018-11-04T21:59:03.120Z,13.32
2018-11-04T22:01:37.630Z,13.38
2018-11-04T22:04:12.132Z,13.42
2018-11-04T22:06:46.545Z,13.43
2018-11-04T22:09:20.718Z,13.42
2018-11-04T22:11:54.861Z,13.34
2018-11-04T22:14:28.988Z,13.35
2018-11-04T22:17:03.028Z,13.31
2018-11-04T22:19:37.886Z,13.26
2018-11-04T22:22:12.160Z,13.33
2018-11-04T22:24:46.391Z,13.35
2018-11-04T22:27:20.765Z,13.23
2018-11-04T22:29:55.251Z,13.21
2018-11-04T22:32:29.407Z,13.25
2018-11-04T22:35:05.243Z,13.23
2018-11-04T22:37:41.332Z,13.27
2018-11-04T22:40:15.671Z,13.24
2018-11-04T22:42:50.179Z,13.24
2018-11-04T22:45:26.915Z,13.29
2018-11-04T22:48:02.194Z,13.36
2018-11-04T22:50:36.778Z,13.30
2018-11-04T22:53:12.874Z,13.31
2018-11-04T22:55:47.526Z,13.36
2018-11-04T22:58:21.666Z,13.41
2018-11-04T23:01:00.338Z,13.42
2018-11-04T23:03:35.545Z,13.39
2018-11-04T23:06:10.301Z,13.35
2018-11-04T23:08:45.564Z,13.32
2018-11-04T23:11:20.969Z,13.31
2018-11-04T23:13:55.132Z,13.31
2018-11-04T23:16:29.767Z,13.21
2018-11-04T23:19:03.906Z,13.25
2018-11-04T23:21:38.892Z,13.07
2018-11-04T23:24:14.269Z,13.23
2018-11-04T23:26:49.376Z,13.23
2018-11-04T23:29:23.537Z,13.31
2018-11-04T23:31:57.872Z,13.34
2018-11-04T23:34:33.641Z,13.36
2018-11-04T23:37:09.063Z,13.43
2018-11-04T23:39:43.117Z,13.32
2018-11-04T23:42:17.365Z,13.40
2018-11-04T23:44:51.464Z,13.34
2018-11-04T23:47:25.817Z,13.30
2018-11-04T23:50:00.023Z,13.24
2018-11-04T23:52:34.224Z,13.30
2018-11-04T23:55:09.340Z,13.18
2018-11-04T23:57:43.621Z,13.29
